createdAt,value
2023-03-08T00:03:22.755Z,19.8
2023-03-08T00:13:23.624Z,19.8
2023-03-08T00:23:23.746Z,19.5
2023-03-08T00:33:23.645Z,19.6
2023-03-08T00:43:23.770Z,19.6
2023-03-08T00:53:23.966Z,19.6
2023-03-08T01:03:24.192Z,21.2
2023-03-08T01:13:24.399Z,19.4
2023-03-08T01:23:24.282Z,19.5
2023-03-08T01:33:24.652Z,19.7
2023-03-08T01:43:25.549Z,19.7
2023-03-08T01:53:25.809Z,19.5
2023-03-08T02:03:26.032Z,19.6
2023-03-08T02:13:26.243Z,19.4
2023-03-08T02:23:28.221Z,19.6
2023-03-08T02:33:28.771Z,19.6
2023-03-08T02:43:30.439Z,19.2
2023-03-08T02:53:30.765Z,19.4
2023-03-08T03:03:08.517Z,19.3
2023-03-08T03:13:09.131Z,19.3
2023-03-08T03:23:09.388Z,19.3
2023-03-08T03:33:10.736Z,19.4
2023-03-08T03:43:12.545Z,20.9
2023-03-08T03:53:13.931Z,19.4
2023-03-08T04:03:15.609Z,19.4
2023-03-08T04:13:17.315Z,19.4
2023-03-08T04:23:20.145Z,19.3
2023-03-08T04:33:23.385Z,19
2023-03-08T04:43:23.748Z,19.3
2023-03-08T04:53:24.939Z,19
2023-03-08T05:03:25.482Z,19.1
2023-03-08T05:13:25.485Z,19.1
2023-03-08T05:23:28.455Z,18.9
2023-03-08T05:33:26.185Z,19.4
2023-03-08T05:43:28.206Z,20.9
2023-03-08T05:53:29.529Z,19.3
2023-03-08T06:03:29.788Z,19.3
2023-03-08T06:13:36.227Z,23.4
2023-03-08T06:23:54.018Z,24.5
2023-03-08T06:34:10.745Z,24.6
2023-03-08T06:44:27.575Z,25.3
2023-03-08T06:54:45.981Z,26.1
2023-03-08T07:05:04.003Z,26.3
2023-03-08T07:15:22.838Z,26.9
2023-03-08T07:25:34.247Z,25.6
2023-03-08T07:35:49.223Z,30.1
2023-03-08T07:46:04.121Z,27.1
2023-03-08T07:56:19.481Z,27.4
2023-03-08T08:06:32.444Z,26.1
2023-03-08T08:16:48.183Z,26.4
2023-03-08T08:27:04.984Z,27.7
2023-03-08T08:37:23.974Z,27.2
2023-03-08T08:47:38.321Z,27.1
2023-03-08T08:57:51.571Z,27
2023-03-08T09:03:11.804Z,26.3
2023-03-08T09:13:23.154Z,26.8
2023-03-08T09:23:32.060Z,26.9
2023-03-08T09:33:43.241Z,26.8
2023-03-08T09:43:55.469Z,27.1
2023-03-08T09:54:09.627Z,27.4
2023-03-08T10:04:24.161Z,27.4
2023-03-08T10:14:41.223Z,28.9
2023-03-08T10:25:00.854Z,29.1
2023-03-08T10:35:21.203Z,29
2023-03-08T10:45:41.679Z,28.9
2023-03-08T10:56:01.892Z,29.1
2023-03-08T11:06:21.283Z,28.8
2023-03-08T11:16:40.141Z,28.7
2023-03-08T11:26:58.972Z,29
2023-03-08T11:37:16.338Z,29.1
2023-03-08T11:47:36.113Z,28.6
2023-03-08T11:57:53.007Z,28.6
2023-03-08T12:08:13.275Z,28.6
2023-03-08T12:18:30.128Z,28.7
2023-03-08T12:28:47.988Z,28.7
2023-03-08T12:38:58.964Z,27.4
2023-03-08T12:49:10.975Z,26.9
2023-03-08T12:59:19.864Z,27
2023-03-08T13:09:27.937Z,25.3
2023-03-08T13:19:32.826Z,25.9
2023-03-08T13:29:38.381Z,25.7
2023-03-08T13:39:42.484Z,25.4
2023-03-08T13:49:47.087Z,24.8
2023-03-08T13:59:50.174Z,24.8
2023-03-08T14:09:53.319Z,24.9
2023-03-08T14:19:56.491Z,24.8
2023-03-08T14:29:59.727Z,24.9
2023-03-08T14:40:02.803Z,24.6
2023-03-08T14:50:03.885Z,22.4
2023-03-08T15:03:08.552Z,22.4
2023-03-08T15:13:07.767Z,22.4
2023-03-08T15:23:08.293Z,24.3
2023-03-08T15:33:10.054Z,24.4
2023-03-08T15:43:10.984Z,22.3
2023-03-08T15:53:11.217Z,22.2
2023-03-08T16:03:13.505Z,24.1
2023-03-08T16:13:18.052Z,23.9
2023-03-08T16:23:22.374Z,24.1
2023-03-08T16:33:26.881Z,24
2023-03-08T16:43:40.548Z,23.8
2023-03-08T16:53:35.993Z,23.6
2023-03-08T17:03:39.937Z,23.7
2023-03-08T17:13:43.013Z,23.4
2023-03-08T17:23:46.370Z,23.5
2023-03-08T17:33:49.639Z,23.6
2023-03-08T17:43:52.845Z,23.3
2023-03-08T17:53:56.067Z,23.2
2023-03-08T18:03:59.429Z,23.3
2023-03-08T18:14:02.484Z,23.4
2023-03-08T18:24:05.921Z,22.9
2023-03-08T18:34:09.059Z,23.3
2023-03-08T18:44:12.314Z,22.9
2023-03-08T18:54:15.665Z,22.8
2023-03-08T19:04:18.695Z,23.1
2023-03-08T19:14:21.618Z,22.8
2023-03-08T19:24:25.059Z,22.9
2023-03-08T19:34:28.144Z,22.8
2023-03-08T19:44:31.962Z,23.1
2023-03-08T19:54:35.182Z,22.8
2023-03-08T20:04:38.515Z,22.7
2023-03-08T20:14:41.699Z,22.7
2023-03-08T20:24:45.021Z,22.8
2023-03-08T20:34:48.306Z,22.7
2023-03-08T20:44:51.602Z,22.8
2023-03-08T20:54:54.961Z,22.8
2023-03-08T21:03:09.582Z,22.9
2023-03-08T21:13:11.863Z,22.8
2023-03-08T21:23:16.093Z,22.9
2023-03-08T21:33:19.355Z,22.8
2023-03-08T21:43:21.713Z,22.9
2023-03-08T21:53:25.956Z,22.8
2023-03-08T22:03:29.798Z,22.7
2023-03-08T22:13:33.521Z,22.7
2023-03-08T22:23:39.088Z,22.8
2023-03-08T22:33:43.536Z,22.9
2023-03-08T22:43:47.942Z,22.6
2023-03-08T22:53:52.746Z,22.7
2023-03-08T23:03:56.804Z,22.8
2023-03-08T23:13:59.552Z,22.8
2023-03-08T23:24:03.371Z,22.8
2023-03-08T23:34:06.619Z,22.8
2023-03-08T23:44:09.672Z,22.8
2023-03-08T23:54:13.244Z,22.8
